Time;durP1;ratioP1;P1;durP2;ratioP2;P2;SDS_P1;SDS_P2;PMS_P1;PMS_P2;Temp;Humidity;BMP_temperature;BMP_pressure;BME280_temperature;BME280_humidity;BME280_pressure;Samples;Min_cycle;Max_cycle;Signal;HPM_P1;HPM_P2
2021/06/03 00:00:57;;;;;;;3.07;1.80;;;;;;;;;;5113800;28;20307;-70
2021/06/03 00:03:24;;;;;;;3.50;1.90;;;;;;;;;;5113807;28;20234;-69
2021/06/03 00:05:52;;;;;;;2.77;2.20;;;;;;;;;;5113336;28;20289;-69
2021/06/03 00:08:19;;;;;;;2.50;2.00;;;;;;;;;;5113404;28;20227;-69
2021/06/03 00:10:50;;;;;;;3.13;2.03;;;;;;;;;;5112249;28;20206;-69
2021/06/03 00:13:18;;;;;;;3.47;1.73;;;;;;;;;;5111292;28;20204;-69
2021/06/03 00:15:44;;;;;;;2.53;1.73;;;;;;;;;;5113135;28;20230;-69
2021/06/03 00:18:11;;;;;;;2.67;2.00;;;;;;;;;;5113405;28;20200;-69
2021/06/03 00:20:38;;;;;;;3.07;1.73;;;;;;;;;;5113179;28;20258;-69
2021/06/03 00:23:04;;;;;;;3.57;2.30;;;;;;;;;;5113150;28;20291;-69
2021/06/03 00:25:31;;;;;;;3.30;2.17;;;;;;;;;;5112706;28;20208;-70
2021/06/03 00:27:58;;;;;;;4.07;1.97;;;;;;;;;;5112963;28;20204;-69
2021/06/03 00:30:24;;;;;;;2.47;1.73;;;;;;;;;;5113003;28;20220;-69
2021/06/03 00:32:51;;;;;;;2.83;1.50;;;;;;;;;;5112075;28;20218;-69
2021/06/03 00:35:19;;;;;;;1.80;1.43;;;;;;;;;;5112138;28;20286;-70
2021/06/03 00:37:46;;;;;;;3.73;1.90;;;;;;;;;;5112799;28;20286;-69
2021/06/03 00:40:13;;;;;;;1.80;1.40;;;;;;;;;;5112661;28;20227;-70
2021/06/03 00:42:40;;;;;;;2.97;2.00;;;;;;;;;;5094632;28;20682;-69
2021/06/03 00:45:09;;;;;;;2.87;1.83;;;;;;;;;;5079581;28;20197;-69
2021/06/03 00:47:35;;;;;;;2.50;2.13;;;;;;;;;;5072212;28;20209;-69
2021/06/03 00:50:06;;;;;;;4.47;2.33;;;;;;;;;;5071871;28;20598;-69
2021/06/03 00:52:33;;;;;;;3.37;2.30;;;;;;;;;;5071881;28;20204;-70
2021/06/03 00:54:59;;;;;;;3.53;2.30;;;;;;;;;;5071813;28;20201;-70
2021/06/03 00:57:25;;;;;;;2.90;2.00;;;;;;;;;;5072034;28;20652;-70
2021/06/03 01:34:40;;;;;;;1.97;1.57;;;;;;;;;;5163011;27;20525;-69
2021/06/03 01:37:06;;;;;;;2.63;2.03;;;;;;;;;;5130169;27;20222;-69
2021/06/03 01:39:35;;;;;;;6.83;3.17;;;;;;;;;;5130060;27;20310;-69
2021/06/03 01:42:01;;;;;;;3.37;2.13;;;;;;;;;;5130083;27;20210;-69
2021/06/03 01:44:28;;;;;;;2.83;1.93;;;;;;;;;;5122784;27;20202;-70
2021/06/03 01:46:55;;;;;;;3.37;2.23;;;;;;;;;;5109433;28;20204;-69
2021/06/03 01:49:23;;;;;;;3.37;1.57;;;;;;;;;;5109203;28;20711;-70
2021/06/03 01:51:50;;;;;;;2.80;1.70;;;;;;;;;;5109428;28;20203;-70
2021/06/03 01:54:18;;;;;;;3.17;1.87;;;;;;;;;;5107818;28;20791;-69
2021/06/03 01:56:46;;;;;;;3.07;2.10;;;;;;;;;;5107956;28;20283;-69
2021/06/03 01:59:12;;;;;;;1.97;1.53;;;;;;;;;;5108943;28;20330;-69
2021/06/03 02:01:38;;;;;;;1.63;1.40;;;;;;;;;;5109287;28;20203;-70
2021/06/03 02:04:05;;;;;;;3.93;2.03;;;;;;;;;;5109331;28;20204;-70
2021/06/03 02:06:31;;;;;;;3.47;1.53;;;;;;;;;;5108926;28;20208;-69
2021/06/03 02:08:58;;;;;;;2.70;1.80;;;;;;;;;;5109024;28;20226;-69
2021/06/03 02:11:25;;;;;;;1.93;1.60;;;;;;;;;;5108960;28;20283;-70
2021/06/03 02:13:55;;;;;;;2.87;1.93;;;;;;;;;;5108484;28;20230;-69
2021/06/03 02:16:21;;;;;;;2.00;1.47;;;;;;;;;;5108604;28;20286;-69
2021/06/03 02:18:50;;;;;;;2.77;1.70;;;;;;;;;;5108759;28;20226;-70
2021/06/03 02:21:17;;;;;;;2.20;1.80;;;;;;;;;;5108995;28;20232;-70
2021/06/03 02:23:45;;;;;;;1.30;1.20;;;;;;;;;;5108700;28;20282;-70
2021/06/03 02:26:11;;;;;;;2.43;1.60;;;;;;;;;;5108250;28;20291;-70
2021/06/03 02:28:38;;;;;;;3.67;2.13;;;;;;;;;;5108670;28;20213;-69
2021/06/03 02:31:04;;;;;;;1.87;1.47;;;;;;;;;;5108743;28;20200;-70
2021/06/03 02:33:32;;;;;;;2.70;1.70;;;;;;;;;;5108403;28;20600;-70
2021/06/03 02:35:58;;;;;;;1.97;1.60;;;;;;;;;;5107074;28;20299;-70
2021/06/03 02:38:26;;;;;;;1.83;1.57;;;;;;;;;;5108326;28;20196;-70
2021/06/03 02:40:53;;;;;;;4.10;1.70;;;;;;;;;;5111155;28;20622;-70
2021/06/03 02:43:20;;;;;;;2.90;2.07;;;;;;;;;;5129004;27;20294;-70
2021/06/03 02:45:46;;;;;;;1.77;1.43;;;;;;;;;;5098474;27;20200;-70
2021/06/03 02:48:13;;;;;;;2.27;1.77;;;;;;;;;;5094862;28;20231;-70
2021/06/03 02:50:40;;;;;;;2.67;1.73;;;;;;;;;;5116157;27;20756;-70
2021/06/03 02:53:06;;;;;;;3.40;1.50;;;;;;;;;;5134296;27;20223;-70
2021/06/03 02:55:33;;;;;;;2.17;1.40;;;;;;;;;;5135016;27;20738;-70
2021/06/03 02:57:59;;;;;;;1.97;1.43;;;;;;;;;;5135628;27;20291;-70
2021/06/03 03:00:27;;;;;;;1.33;1.23;;;;;;;;;;5135296;27;20762;-69
2021/06/03 03:02:57;;;;;;;1.93;1.50;;;;;;;;;;5135351;27;20294;-70
2021/06/03 03:05:24;;;;;;;1.90;1.63;;;;;;;;;;5135141;27;20202;-70
2021/06/03 03:07:50;;;;;;;2.07;1.23;;;;;;;;;;5135108;27;20225;-69
2021/06/03 03:10:19;;;;;;;1.90;1.40;;;;;;;;;;5134186;27;20314;-69
2021/06/03 03:12:46;;;;;;;2.10;1.70;;;;;;;;;;5135884;27;20579;-70
2021/06/03 03:15:13;;;;;;;4.37;1.80;;;;;;;;;;5135417;27;20278;-70
2021/06/03 03:17:40;;;;;;;1.77;1.33;;;;;;;;;;5135539;27;20290;-70
2021/06/03 03:20:07;;;;;;;2.30;1.63;;;;;;;;;;5134072;27;20335;-70
2021/06/03 03:22:49;;;;;;;2.70;1.80;;;;;;;;;;5134459;27;20195;-70
2021/06/03 03:25:16;;;;;;;2.43;1.70;;;;;;;;;;5097311;27;20253;-69
2021/06/03 03:27:44;;;;;;;2.53;1.57;;;;;;;;;;5093993;28;20204;-70
2021/06/03 03:30:11;;;;;;;3.37;1.93;;;;;;;;;;5093792;28;20304;-70
2021/06/03 03:32:38;;;;;;;2.33;1.87;;;;;;;;;;5092282;28;20209;-70
2021/06/03 03:35:06;;;;;;;2.77;1.50;;;;;;;;;;5093345;28;20231;-69
2021/06/03 03:37:32;;;;;;;3.37;1.53;;;;;;;;;;5092546;28;20201;-70
2021/06/03 03:39:59;;;;;;;2.60;1.50;;;;;;;;;;5093673;28;20220;-69
2021/06/03 03:42:26;;;;;;;2.63;1.70;;;;;;;;;;5109718;28;20617;-70
2021/06/03 03:44:52;;;;;;;3.53;1.60;;;;;;;;;;5103437;28;20254;-70
2021/06/03 03:47:19;;;;;;;1.87;1.23;;;;;;;;;;5093694;28;20285;-70
2021/06/03 03:49:46;;;;;;;1.53;1.33;;;;;;;;;;5099665;27;20242;-70
2021/06/03 03:52:12;;;;;;;3.40;1.70;;;;;;;;;;5133357;27;20222;-69
2021/06/03 03:54:38;;;;;;;2.50;1.97;;;;;;;;;;5134047;27;20226;-70
2021/06/03 03:57:05;;;;;;;2.13;1.60;;;;;;;;;;5133220;27;20199;-70
2021/06/03 03:59:31;;;;;;;1.47;1.30;;;;;;;;;;5134270;27;20305;-70
2021/06/03 04:01:58;;;;;;;4.83;2.40;;;;;;;;;;5133155;27;20289;-70
2021/06/03 04:04:25;;;;;;;2.57;1.60;;;;;;;;;;5133866;27;20210;-69
2021/06/03 04:06:51;;;;;;;3.23;1.53;;;;;;;;;;5134143;27;20206;-70
2021/06/03 04:09:18;;;;;;;2.70;1.60;;;;;;;;;;5133978;27;20245;-69
2021/06/03 04:11:44;;;;;;;2.90;2.03;;;;;;;;;;5134062;27;20253;-70
2021/06/03 04:14:12;;;;;;;2.73;1.80;;;;;;;;;;5133855;27;20311;-70
2021/06/03 04:16:38;;;;;;;2.07;1.77;;;;;;;;;;5133530;27;20295;-70
2021/06/03 04:19:05;;;;;;;3.93;1.93;;;;;;;;;;5133977;27;20215;-70
2021/06/03 04:21:31;;;;;;;2.10;1.67;;;;;;;;;;5134032;27;20203;-70
2021/06/03 04:23:59;;;;;;;3.03;1.80;;;;;;;;;;5133806;27;20225;-70
2021/06/03 04:26:25;;;;;;;3.20;1.87;;;;;;;;;;5133442;27;20247;-70
2021/06/03 04:28:52;;;;;;;2.23;1.80;;;;;;;;;;5133600;27;20227;-70
2021/06/03 04:31:18;;;;;;;2.63;1.97;;;;;;;;;;5133522;27;20209;-70
2021/06/03 04:33:45;;;;;;;3.53;1.70;;;;;;;;;;5133527;27;20233;-69
2021/06/03 04:36:11;;;;;;;2.57;1.90;;;;;;;;;;5133837;27;20199;-69
2021/06/03 04:38:37;;;;;;;3.23;2.10;;;;;;;;;;5133551;27;20282;-69
2021/06/03 04:41:04;;;;;;;3.23;1.97;;;;;;;;;;5129086;27;20206;-69
2021/06/03 04:43:30;;;;;;;3.23;2.53;;;;;;;;;;5113060;28;20652;-69
2021/06/03 04:45:56;;;;;;;2.43;2.10;;;;;;;;;;5112484;28;20204;-70
2021/06/03 04:48:23;;;;;;;4.40;2.10;;;;;;;;;;5113017;28;20385;-69
2021/06/03 04:50:49;;;;;;;3.90;1.70;;;;;;;;;;5123643;27;20754;-70
2021/06/03 04:53:18;;;;;;;2.20;1.67;;;;;;;;;;5133160;27;20230;-70
2021/06/03 04:55:45;;;;;;;1.67;1.40;;;;;;;;;;5132982;27;20285;-69
2021/06/03 04:58:12;;;;;;;2.77;1.90;;;;;;;;;;5133364;27;20297;-69
2021/06/03 05:00:39;;;;;;;3.03;2.13;;;;;;;;;;5133249;27;20333;-70
2021/06/03 05:03:06;;;;;;;7.63;2.43;;;;;;;;;;5133267;27;20206;-69
2021/06/03 05:05:32;;;;;;;2.27;1.83;;;;;;;;;;5133212;27;20207;-70
2021/06/03 05:08:00;;;;;;;2.93;2.10;;;;;;;;;;5132567;27;20289;-69
2021/06/03 05:10:27;;;;;;;2.33;1.97;;;;;;;;;;5132963;27;20255;-69
2021/06/03 05:12:54;;;;;;;3.08;1.85;;;;;;;;;;5132761;27;20258;-69
2021/06/03 05:15:20;;;;;;;3.13;1.52;;;;;;;;;;5132686;27;20796;-69
2021/06/03 05:17:47;;;;;;;2.55;1.63;;;;;;;;;;5132938;27;20231;-69
2021/06/03 05:20:15;;;;;;;2.88;1.77;;;;;;;;;;5132605;27;20721;-69
2021/06/03 05:22:42;;;;;;;2.88;1.92;;;;;;;;;;5132948;27;20225;-69
2021/06/03 05:25:11;;;;;;;2.83;1.90;;;;;;;;;;5102900;27;20829;-69
2021/06/03 05:27:38;;;;;;;2.22;1.80;;;;;;;;;;5112053;28;20207;-69
2021/06/03 05:30:05;;;;;;;1.92;1.75;;;;;;;;;;5112173;28;20234;-69
2021/06/03 05:32:32;;;;;;;3.25;1.50;;;;;;;;;;5112055;28;20210;-69
2021/06/03 05:34:59;;;;;;;1.83;1.60;;;;;;;;;;5112026;28;20726;-69
2021/06/03 05:37:25;;;;;;;2.10;1.63;;;;;;;;;;5112558;28;20295;-69
2021/06/03 05:39:52;;;;;;;1.63;1.52;;;;;;;;;;5112051;28;20232;-69
2021/06/03 05:42:19;;;;;;;1.77;1.63;;;;;;;;;;5110622;28;20203;-69
2021/06/03 05:44:46;;;;;;;1.52;1.30;;;;;;;;;;5102519;28;20220;-69
2021/06/03 05:47:12;;;;;;;1.52;1.42;;;;;;;;;;5091634;28;20559;-69
2021/06/03 05:49:39;;;;;;;3.80;1.98;;;;;;;;;;5095960;28;20315;-69
2021/06/03 05:52:05;;;;;;;1.48;1.27;;;;;;;;;;5132787;27;20199;-69
2021/06/03 05:54:32;;;;;;;1.67;1.52;;;;;;;;;;5131043;28;20201;-69
2021/06/03 05:56:59;;;;;;;1.50;1.40;;;;;;;;;;5132713;27;20282;-69
2021/06/03 05:59:27;;;;;;;1.70;1.60;;;;;;;;;;5132508;27;20230;-69
2021/06/03 06:01:59;;;;;;;2.05;1.60;;;;;;;;;;5132487;27;20223;-69
2021/06/03 06:06:52;;;;;;;1.25;1.10;;;;;;;;;;5132201;27;20228;-68
2021/06/03 06:09:19;;;;;;;1.50;1.33;;;;;;;;;;5130919;27;20227;-69
2021/06/03 06:11:45;;;;;;;1.73;1.20;;;;;;;;;;5131318;28;20213;-69
2021/06/03 06:14:12;;;;;;;3.92;1.38;;;;;;;;;;5131222;27;20196;-69
2021/06/03 06:16:38;;;;;;;1.88;1.30;;;;;;;;;;5132126;27;20226;-68
2021/06/03 06:19:06;;;;;;;1.63;1.25;;;;;;;;;;5132063;27;20241;-69
2021/06/03 06:21:33;;;;;;;1.65;0.90;;;;;;;;;;5116765;27;20268;-67
2021/06/03 06:24:00;;;;;;;1.20;1.10;;;;;;;;;;5115068;28;20346;-66
2021/06/03 06:26:26;;;;;;;1.85;1.38;;;;;;;;;;5114289;28;20199;-68
2021/06/03 06:28:54;;;;;;;1.70;1.10;;;;;;;;;;5115166;28;20223;-68
2021/06/03 06:31:20;;;;;;;1.35;1.25;;;;;;;;;;5115133;28;20290;-68
2021/06/03 06:33:47;;;;;;;1.48;1.02;;;;;;;;;;5115076;28;20203;-68
2021/06/03 06:36:14;;;;;;;1.33;1.23;;;;;;;;;;5113998;28;20225;-68
2021/06/03 06:38:41;;;;;;;1.40;1.02;;;;;;;;;;5115352;28;20227;-68
2021/06/03 06:41:08;;;;;;;1.45;1.20;;;;;;;;;;5110159;28;20196;-67
2021/06/03 06:43:34;;;;;;;1.75;1.20;;;;;;;;;;5114596;28;20737;-66
2021/06/03 06:46:02;;;;;;;1.35;1.15;;;;;;;;;;5114334;28;20889;-68
2021/06/03 06:48:29;;;;;;;1.75;1.23;;;;;;;;;;5113750;28;20234;-67
2021/06/03 06:50:56;;;;;;;1.60;1.23;;;;;;;;;;5127604;27;20658;-67
2021/06/03 06:53:22;;;;;;;1.50;1.30;;;;;;;;;;5135200;27;20195;-67
2021/06/03 06:55:49;;;;;;;1.48;1.20;;;;;;;;;;5134279;27;20202;-66
2021/06/03 06:58:15;;;;;;;2.05;1.23;;;;;;;;;;5135020;27;20305;-67
2021/06/03 07:00:42;;;;;;;1.38;0.93;;;;;;;;;;5133660;27;20850;-67
2021/06/03 07:03:10;;;;;;;1.98;1.15;;;;;;;;;;5134994;27;20210;-67
2021/06/03 07:05:37;;;;;;;1.73;0.90;;;;;;;;;;5132912;27;20268;-67
2021/06/03 07:08:04;;;;;;;0.98;0.90;;;;;;;;;;5135015;27;20203;-67
2021/06/03 07:10:30;;;;;;;1.10;1.00;;;;;;;;;;5134876;27;20219;-66
2021/06/03 07:12:57;;;;;;;1.33;1.10;;;;;;;;;;5134765;27;20286;-66
2021/06/03 07:15:23;;;;;;;0.82;0.82;;;;;;;;;;5133825;27;20211;-67
2021/06/03 07:17:50;;;;;;;1.40;1.10;;;;;;;;;;5134589;27;20282;-68
2021/06/03 07:20:19;;;;;;;1.30;1.20;;;;;;;;;;5134576;27;20231;-67
2021/06/03 07:22:46;;;;;;;0.82;0.80;;;;;;;;;;5134372;27;20684;-68
2021/06/03 07:25:14;;;;;;;1.27;1.17;;;;;;;;;;5132420;27;20230;-68
2021/06/03 07:27:41;;;;;;;2.28;0.93;;;;;;;;;;5102365;27;20210;-68
2021/06/03 07:30:09;;;;;;;0.90;0.90;;;;;;;;;;5105390;28;20255;-69
2021/06/03 07:32:35;;;;;;;0.90;0.88;;;;;;;;;;5105979;28;20243;-69
2021/06/03 07:35:02;;;;;;;1.27;0.73;;;;;;;;;;5106981;28;20203;-69
2021/06/03 07:37:29;;;;;;;2.10;1.25;;;;;;;;;;5107902;28;20243;-69
2021/06/03 07:39:55;;;;;;;0.95;0.77;;;;;;;;;;5107261;28;20591;-69
2021/06/03 07:42:22;;;;;;;1.17;1.00;;;;;;;;;;5106707;28;20229;-71
2021/06/03 07:44:48;;;;;;;1.23;0.90;;;;;;;;;;5098075;28;20243;-70
2021/06/03 07:47:15;;;;;;;1.45;0.90;;;;;;;;;;5086774;28;20928;-70
2021/06/03 07:49:41;;;;;;;1.20;0.80;;;;;;;;;;5105725;28;20227;-69
2021/06/03 07:52:08;;;;;;;1.30;0.88;;;;;;;;;;5106740;28;20905;-71
2021/06/03 07:54:35;;;;;;;1.20;1.10;;;;;;;;;;5106993;28;20290;-72
2021/06/03 07:57:02;;;;;;;1.40;1.10;;;;;;;;;;5107846;28;20295;-70
2021/06/03 07:59:29;;;;;;;1.35;1.00;;;;;;;;;;5106687;28;20226;-69
2021/06/03 08:01:55;;;;;;;2.97;1.55;;;;;;;;;;5106977;28;20298;-68
2021/06/03 08:04:22;;;;;;;0.93;0.88;;;;;;;;;;5089707;28;20270;-70
2021/06/03 08:06:48;;;;;;;1.20;0.90;;;;;;;;;;5086573;28;20207;-70
2021/06/03 08:09:16;;;;;;;1.30;1.20;;;;;;;;;;5087175;28;20224;-73
2021/06/03 08:11:44;;;;;;;1.25;1.10;;;;;;;;;;5087152;28;20283;-71
2021/06/03 08:14:11;;;;;;;0.82;0.82;;;;;;;;;;5085193;28;20200;-70
2021/06/03 08:16:38;;;;;;;1.20;1.08;;;;;;;;;;5085590;28;20207;-74
2021/06/03 08:19:04;;;;;;;2.05;1.20;;;;;;;;;;5085071;28;20247;-70
2021/06/03 08:21:33;;;;;;;3.08;1.02;;;;;;;;;;5084279;28;20211;-70
2021/06/03 08:24:00;;;;;;;1.38;0.90;;;;;;;;;;5086453;28;20230;-74
2021/06/03 08:26:28;;;;;;;1.05;0.95;;;;;;;;;;5085909;28;20197;-71
2021/06/03 08:28:56;;;;;;;0.90;0.85;;;;;;;;;;5086490;28;20257;-70
2021/06/03 08:31:26;;;;;;;2.40;1.23;;;;;;;;;;5086589;28;20200;-72
2021/06/03 08:33:53;;;;;;;0.88;0.77;;;;;;;;;;5085535;28;20208;-72
2021/06/03 08:36:23;;;;;;;3.08;1.42;;;;;;;;;;5085182;28;20223;-70
2021/06/03 08:38:49;;;;;;;1.40;1.30;;;;;;;;;;5085889;28;20220;-71
2021/06/03 08:41:16;;;;;;;0.80;0.80;;;;;;;;;;5092480;28;20291;-71
2021/06/03 08:43:43;;;;;;;1.33;1.23;;;;;;;;;;5105068;28;20989;-70
2021/06/03 08:46:09;;;;;;;1.15;0.95;;;;;;;;;;5084130;28;20224;-71
2021/06/03 08:48:36;;;;;;;2.85;1.30;;;;;;;;;;5085080;28;20197;-71
2021/06/03 08:51:04;;;;;;;8.77;1.40;;;;;;;;;;5113502;27;20207;-71
2021/06/03 08:53:31;;;;;;;0.82;0.80;;;;;;;;;;5126889;27;20763;-74
2021/06/03 08:56:14;;;;;;;1.88;1.40;;;;;;;;;;5125196;27;20195;-71
2021/06/03 08:58:41;;;;;;;2.70;1.60;;;;;;;;;;5127375;27;20203;-72
2021/06/03 09:01:08;;;;;;;0.82;0.82;;;;;;;;;;5126422;27;20671;-72
2021/06/03 09:03:35;;;;;;;1.10;0.95;;;;;;;;;;5126486;27;20226;-72
2021/06/03 09:06:02;;;;;;;1.75;1.38;;;;;;;;;;5125030;27;20306;-73
2021/06/03 09:08:31;;;;;;;1.05;0.95;;;;;;;;;;5125281;27;20306;-71
2021/06/03 09:11:11;;;;;;;1.10;1.02;;;;;;;;;;5124325;27;20209;-72
2021/06/03 09:13:40;;;;;;;1.38;1.10;;;;;;;;;;5123859;27;20199;-72
2021/06/03 09:16:10;;;;;;;1.35;0.95;;;;;;;;;;5124016;27;20694;-72
2021/06/03 09:18:40;;;;;;;1.10;1.00;;;;;;;;;;5125900;27;20207;-72
2021/06/03 09:21:11;;;;;;;1.02;0.95;;;;;;;;;;5124737;27;20221;-72
2021/06/03 09:23:39;;;;;;;1.10;1.00;;;;;;;;;;5126350;27;20203;-72
2021/06/03 09:26:07;;;;;;;1.17;1.08;;;;;;;;;;5125704;27;20310;-73
2021/06/03 09:28:35;;;;;;;1.13;1.00;;;;;;;;;;5125860;27;20202;-71
2021/06/03 09:31:04;;;;;;;1.20;1.00;;;;;;;;;;5126449;27;20229;-71
2021/06/03 09:33:39;;;;;;;5.95;1.98;;;;;;;;;;5130524;27;20221;-71
2021/06/03 09:36:07;;;;;;;1.30;1.20;;;;;;;;;;5130470;27;20577;-70
2021/06/03 09:38:34;;;;;;;2.50;1.42;;;;;;;;;;5129611;27;20547;-70
2021/06/03 09:41:01;;;;;;;1.00;0.90;;;;;;;;;;5126686;27;20727;-71
2021/06/03 09:43:27;;;;;;;1.88;1.20;;;;;;;;;;5110020;28;20243;-71
2021/06/03 09:45:55;;;;;;;1.88;0.90;;;;;;;;;;5089818;28;20352;-72
2021/06/03 09:48:37;;;;;;;1.33;1.05;;;;;;;;;;5087781;28;20215;-71
2021/06/03 09:51:23;;;;;;;1.48;1.10;;;;;;;;;;5115922;28;20226;-71
2021/06/03 09:53:56;;;;;;;1.33;1.10;;;;;;;;;;5129981;27;20334;-73
2021/06/03 09:56:24;;;;;;;1.13;1.02;;;;;;;;;;5133016;27;20259;-70
2021/06/03 09:58:52;;;;;;;0.98;0.88;;;;;;;;;;5133969;27;20250;-71
2021/06/03 10:01:38;;;;;;;0.98;0.93;;;;;;;;;;5134017;27;20213;-71
2021/06/03 10:04:05;;;;;;;1.33;1.15;;;;;;;;;;5130225;27;20222;-71
2021/06/03 10:06:32;;;;;;;1.42;1.15;;;;;;;;;;5133185;27;20272;-74
2021/06/03 10:08:58;;;;;;;1.35;0.90;;;;;;;;;;5133330;27;20288;-71
2021/06/03 10:11:48;;;;;;;0.82;0.82;;;;;;;;;;5132926;27;20359;-74
2021/06/03 10:14:16;;;;;;;1.85;1.20;;;;;;;;;;5134512;27;20623;-73
2021/06/03 10:16:43;;;;;;;1.10;1.00;;;;;;;;;;5134099;27;20208;-72
2021/06/03 10:19:23;;;;;;;0.98;0.77;;;;;;;;;;5133943;27;20307;-71
2021/06/03 10:22:09;;;;;;;2.20;1.38;;;;;;;;;;5131703;27;20309;-71
2021/06/03 10:24:56;;;;;;;9.25;1.17;;;;;;;;;;5132846;27;20694;-71
2021/06/03 10:27:24;;;;;;;1.85;0.73;;;;;;;;;;5133248;27;20199;-71
2021/06/03 10:29:51;;;;;;;1.02;0.82;;;;;;;;;;5133623;27;20557;-72
2021/06/03 10:32:19;;;;;;;1.55;1.20;;;;;;;;;;5132873;27;20203;-72
2021/06/03 10:34:46;;;;;;;1.70;1.15;;;;;;;;;;5130652;27;20207;-71
2021/06/03 10:37:13;;;;;;;1.10;0.85;;;;;;;;;;5132753;27;20238;-71
2021/06/03 10:39:41;;;;;;;1.45;0.95;;;;;;;;;;5132364;27;20347;-71
2021/06/03 10:42:10;;;;;;;1.25;1.08;;;;;;;;;;5119026;27;20208;-71
2021/06/03 10:44:37;;;;;;;0.70;0.70;;;;;;;;;;5103506;28;20232;-71
2021/06/03 10:47:04;;;;;;;1.42;1.23;;;;;;;;;;5092012;28;20228;-71
2021/06/03 10:49:45;;;;;;;0.93;0.90;;;;;;;;;;5097178;27;20242;-71
2021/06/03 10:52:13;;;;;;;1.52;1.10;;;;;;;;;;5132214;27;20238;-71
2021/06/03 10:54:47;;;;;;;1.25;1.15;;;;;;;;;;5113005;27;20205;-72
2021/06/03 10:57:14;;;;;;;1.17;0.95;;;;;;;;;;5132161;27;20204;-72
2021/06/03 10:59:41;;;;;;;2.25;0.95;;;;;;;;;;5132255;27;20219;-74
2021/06/03 11:02:08;;;;;;;1.00;0.93;;;;;;;;;;5130863;27;20199;-72
2021/06/03 11:04:36;;;;;;;1.08;0.98;;;;;;;;;;5129241;27;20279;-71
2021/06/03 11:07:04;;;;;;;3.08;1.77;;;;;;;;;;5128447;27;20270;-69
2021/06/03 11:09:31;;;;;;;2.72;1.17;;;;;;;;;;5129520;27;20260;-70
2021/06/03 11:12:17;;;;;;;2.00;1.35;;;;;;;;;;5131355;27;20211;-69
2021/06/03 11:14:59;;;;;;;1.65;1.13;;;;;;;;;;5130463;27;20230;-69
2021/06/03 11:17:44;;;;;;;1.60;1.23;;;;;;;;;;5131014;27;20315;-70
2021/06/03 11:20:11;;;;;;;0.65;0.65;;;;;;;;;;5131331;27;20301;-70
2021/06/03 11:22:37;;;;;;;3.38;1.02;;;;;;;;;;5130524;27;20263;-70
2021/06/03 11:25:05;;;;;;;1.00;0.90;;;;;;;;;;5129326;27;20309;-75
2021/06/03 11:27:39;;;;;;;0.65;0.65;;;;;;;;;;5131450;27;20225;-71
2021/06/03 11:30:12;;;;;;;0.95;0.77;;;;;;;;;;5100891;27;20219;-74
2021/06/03 11:32:42;;;;;;;0.60;0.60;;;;;;;;;;5098829;28;20880;-71
2021/06/03 11:35:10;;;;;;;0.95;0.85;;;;;;;;;;5102501;27;20291;-71
2021/06/03 11:37:39;;;;;;;0.95;0.82;;;;;;;;;;5101196;28;20682;-71
2021/06/03 11:40:06;;;;;;;1.23;0.70;;;;;;;;;;5102618;28;20216;-70
2021/06/03 11:42:41;;;;;;;0.90;0.70;;;;;;;;;;5101105;28;20204;-71
2021/06/03 11:45:11;;;;;;;1.27;0.80;;;;;;;;;;5094650;28;20239;-71
2021/06/03 11:47:37;;;;;;;0.75;0.60;;;;;;;;;;5101764;28;20273;-70
2021/06/03 11:50:05;;;;;;;0.65;0.63;;;;;;;;;;5102336;27;20693;-71
2021/06/03 11:52:31;;;;;;;2.03;0.70;;;;;;;;;;5098043;28;20997;-74
2021/06/03 11:55:01;;;;;;;0.52;0.52;;;;;;;;;;5100832;28;20628;-70
2021/06/03 11:57:29;;;;;;;1.00;0.70;;;;;;;;;;5102050;28;20704;-72
2021/06/03 12:00:07;;;;;;;0.85;0.70;;;;;;;;;;5099050;28;20730;-71
2021/06/03 12:02:38;;;;;;;1.10;0.80;;;;;;;;;;5101178;27;20199;-69
2021/06/03 12:05:14;;;;;;;0.95;0.82;;;;;;;;;;5095903;28;20260;-69
2021/06/03 12:07:50;;;;;;;0.57;0.50;;;;;;;;;;5102627;28;20354;-68
2021/06/03 12:10:18;;;;;;;0.80;0.70;;;;;;;;;;5101025;28;20223;-68
2021/06/03 12:12:45;;;;;;;0.60;0.60;;;;;;;;;;5102068;28;20266;-69
2021/06/03 12:15:15;;;;;;;0.45;0.45;;;;;;;;;;5103147;28;20283;-71
2021/06/03 12:17:42;;;;;;;1.20;0.57;;;;;;;;;;5100994;28;20202;-67
2021/06/03 12:20:11;;;;;;;1.40;0.95;;;;;;;;;;5102745;28;20224;-70
2021/06/03 12:22:37;;;;;;;0.70;0.55;;;;;;;;;;5102244;28;20250;-69
2021/06/03 12:25:04;;;;;;;0.70;0.70;;;;;;;;;;5102287;28;20307;-70
2021/06/03 12:27:36;;;;;;;0.60;0.60;;;;;;;;;;5101257;28;20220;-70
2021/06/03 12:30:15;;;;;;;1.33;1.00;;;;;;;;;;5098823;28;20688;-70
2021/06/03 12:32:43;;;;;;;0.85;0.60;;;;;;;;;;5101759;28;20219;-69
2021/06/03 12:35:09;;;;;;;10.65;6.18;;;;;;;;;;5101666;28;20308;-70
2021/06/03 12:37:37;;;;;;;3.25;1.70;;;;;;;;;;5102775;28;20228;-70
2021/06/03 12:40:19;;;;;;;4.90;2.45;;;;;;;;;;5102010;28;20270;-70
2021/06/03 12:42:45;;;;;;;0.50;0.50;;;;;;;;;;5101483;28;20237;-69
2021/06/03 12:45:12;;;;;;;0.45;0.45;;;;;;;;;;5098183;28;20868;-69
2021/06/03 12:47:38;;;;;;;0.60;0.50;;;;;;;;;;5101672;28;20203;-70
2021/06/03 12:50:11;;;;;;;0.98;0.80;;;;;;;;;;5106725;27;20287;-70
2021/06/03 12:52:38;;;;;;;0.57;0.55;;;;;;;;;;5100512;28;20196;-69
2021/06/03 12:55:05;;;;;;;0.77;0.70;;;;;;;;;;5100748;28;20200;-71
2021/06/03 12:57:32;;;;;;;1.17;0.80;;;;;;;;;;5101154;27;20302;-70
2021/06/03 12:59:58;;;;;;;0.57;0.57;;;;;;;;;;5101124;28;20307;-71
2021/06/03 13:02:29;;;;;;;0.82;0.60;;;;;;;;;;5102214;28;20780;-70
2021/06/03 13:04:56;;;;;;;0.70;0.70;;;;;;;;;;5096352;28;20386;-71
2021/06/03 13:07:30;;;;;;;0.80;0.70;;;;;;;;;;5095146;28;20349;-71
2021/06/03 13:09:57;;;;;;;0.85;0.75;;;;;;;;;;5097239;28;20288;-69
2021/06/03 13:12:24;;;;;;;0.60;0.60;;;;;;;;;;5100869;28;20212;-71
2021/06/03 13:14:54;;;;;;;0.57;0.57;;;;;;;;;;5100830;28;20247;-71
2021/06/03 13:17:24;;;;;;;1.50;1.10;;;;;;;;;;5104712;28;20648;-72
2021/06/03 13:19:50;;;;;;;0.43;0.43;;;;;;;;;;5103852;28;20276;-71
2021/06/03 13:22:20;;;;;;;3.50;0.80;;;;;;;;;;5105406;28;20235;-71
2021/06/03 13:24:48;;;;;;;0.75;0.70;;;;;;;;;;5102507;28;20203;-72
2021/06/03 13:27:14;;;;;;;0.50;0.50;;;;;;;;;;5102877;28;20253;-72
2021/06/03 13:29:46;;;;;;;0.57;0.50;;;;;;;;;;5103137;28;20287;-72
2021/06/03 13:32:13;;;;;;;0.35;0.35;;;;;;;;;;5103993;28;20807;-72
2021/06/03 13:34:41;;;;;;;0.22;0.22;;;;;;;;;;5102974;28;20204;-74
2021/06/03 13:37:08;;;;;;;0.93;0.60;;;;;;;;;;5104691;28;20330;-73
2021/06/03 13:39:36;;;;;;;0.30;0.25;;;;;;;;;;5105569;28;20350;-73
2021/06/03 13:42:23;;;;;;;0.60;0.60;;;;;;;;;;5103694;28;20204;-73
2021/06/03 13:45:11;;;;;;;0.75;0.68;;;;;;;;;;5102442;28;20210;-73
2021/06/03 13:47:38;;;;;;;1.58;0.75;;;;;;;;;;5104240;27;20355;-73
2021/06/03 13:50:20;;;;;;;0.50;0.50;;;;;;;;;;5108842;27;20218;-71
2021/06/03 13:52:49;;;;;;;0.40;0.40;;;;;;;;;;5105293;28;20212;-72
2021/06/03 13:55:17;;;;;;;0.60;0.60;;;;;;;;;;5102965;28;20295;-73
2021/06/03 13:57:44;;;;;;;0.30;0.30;;;;;;;;;;5104616;28;20310;-72
2021/06/03 14:00:21;;;;;;;2.28;0.60;;;;;;;;;;5104105;28;20285;-69
2021/06/03 14:02:57;;;;;;;0.50;0.50;;;;;;;;;;5105178;28;20215;-69
2021/06/03 14:05:23;;;;;;;0.82;0.80;;;;;;;;;;5093108;28;20646;-68
2021/06/03 14:08:09;;;;;;;1.05;0.65;;;;;;;;;;5099261;28;20258;-68
2021/06/03 14:10:55;;;;;;;3.05;0.82;;;;;;;;;;5097721;28;20266;-68
2021/06/03 14:13:22;;;;;;;1.00;0.75;;;;;;;;;;5092015;28;20705;-68
2021/06/03 14:15:48;;;;;;;1.20;0.73;;;;;;;;;;5096869;28;20701;-69
2021/06/03 14:18:15;;;;;;;0.70;0.70;;;;;;;;;;5099454;28;20243;-68
2021/06/03 14:20:41;;;;;;;0.55;0.50;;;;;;;;;;5099772;28;20399;-68
2021/06/03 14:23:08;;;;;;;0.82;0.45;;;;;;;;;;5097805;28;20370;-70
2021/06/03 14:25:36;;;;;;;0.50;0.50;;;;;;;;;;5098161;28;20461;-68
2021/06/03 14:28:13;;;;;;;0.43;0.43;;;;;;;;;;5098503;28;20203;-69
2021/06/03 14:30:46;;;;;;;3.47;1.10;;;;;;;;;;5093357;28;20227;-69
2021/06/03 14:33:16;;;;;;;4.63;2.38;;;;;;;;;;5099554;28;20216;-73
2021/06/03 14:35:47;;;;;;;1.15;0.82;;;;;;;;;;5096462;28;20246;-68
2021/06/03 14:38:15;;;;;;;1.13;1.00;;;;;;;;;;5099649;28;20665;-70
2021/06/03 14:40:48;;;;;;;1.17;0.73;;;;;;;;;;5101041;28;20220;-68
2021/06/03 14:43:14;;;;;;;0.35;0.32;;;;;;;;;;5104185;28;20272;-69
2021/06/03 14:45:42;;;;;;;0.95;0.45;;;;;;;;;;5106184;28;20192;-69
2021/06/03 14:48:16;;;;;;;0.70;0.70;;;;;;;;;;5099544;28;20588;-70
2021/06/03 14:50:44;;;;;;;1.40;1.13;;;;;;;;;;5099015;28;20303;-70
2021/06/03 14:53:11;;;;;;;0.82;0.68;;;;;;;;;;5100181;28;20355;-68
2021/06/03 14:55:42;;;;;;;0.57;0.52;;;;;;;;;;5100972;28;20596;-70
2021/06/03 14:58:08;;;;;;;0.75;0.60;;;;;;;;;;5099478;28;20211;-69
2021/06/03 15:00:36;;;;;;;0.38;0.38;;;;;;;;;;5099522;28;20379;-68
2021/06/03 15:03:03;;;;;;;0.82;0.70;;;;;;;;;;5101521;28;20227;-69
2021/06/03 15:05:30;;;;;;;1.08;0.50;;;;;;;;;;5095817;28;20215;-71
2021/06/03 15:07:57;;;;;;;0.60;0.60;;;;;;;;;;5104278;28;20247;-69
2021/06/03 15:10:26;;;;;;;3.78;1.48;;;;;;;;;;5102913;28;20236;-72
2021/06/03 15:12:52;;;;;;;0.93;0.85;;;;;;;;;;5099759;28;20279;-67
2021/06/03 15:15:20;;;;;;;2.58;0.90;;;;;;;;;;5097019;28;20196;-67
2021/06/03 15:17:48;;;;;;;2.35;1.90;;;;;;;;;;5094919;28;20230;-67
2021/06/03 15:20:25;;;;;;;2.72;1.70;;;;;;;;;;5099659;28;20275;-69
2021/06/03 15:22:52;;;;;;;0.80;0.60;;;;;;;;;;5102707;28;20347;-67
2021/06/03 15:25:20;;;;;;;0.50;0.50;;;;;;;;;;5102507;28;20707;-68
2021/06/03 15:27:47;;;;;;;5.20;3.63;;;;;;;;;;5102199;28;20227;-69